sensor_id;sensor_type;location;lat;lon;timestamp;temperature;humidity
8593;DHT22;4334;49.982;8.398;2023-05-23T00:01:02;18.20;99.90
8593;DHT22;4334;49.982;8.398;2023-05-23T00:03:31;18.20;99.90
8593;DHT22;4334;49.982;8.398;2023-05-23T00:05:58;18.20;99.90
8593;DHT22;4334;49.982;8.398;2023-05-23T00:08:24;18.20;99.90
8593;DHT22;4334;49.982;8.398;2023-05-23T00:10:53;18.10;99.90
8593;DHT22;4334;49.982;8.398;2023-05-23T00:13:19;15.80;99.90
8593;DHT22;4334;49.982;8.398;2023-05-23T00:15:46;18.30;99.90
8593;DHT22;4334;49.982;8.398;2023-05-23T00:18:13;18.20;99.90
8593;DHT22;4334;49.982;8.398;2023-05-23T00:20:41;18.20;99.90
8593;DHT22;4334;49.982;8.398;2023-05-23T00:23:08;18.20;99.90
8593;DHT22;4334;49.982;8.398;2023-05-23T00:25:35;18.10;99.90
8593;DHT22;4334;49.982;8.398;2023-05-23T00:28:04;18.10;99.90
8593;DHT22;4334;49.982;8.398;2023-05-23T00:30:32;18.00;99.90
8593;DHT22;4334;49.982;8.398;2023-05-23T00:32:59;22.00;99.90
8593;DHT22;4334;49.982;8.398;2023-05-23T00:35:25;17.90;99.90
8593;DHT22;4334;49.982;8.398;2023-05-23T00:37:52;17.80;99.90
8593;DHT22;4334;49.982;8.398;2023-05-23T00:40:20;17.80;99.90
8593;DHT22;4334;49.982;8.398;2023-05-23T00:42:47;17.90;99.90
8593;DHT22;4334;49.982;8.398;2023-05-23T00:45:15;21.00;99.90
8593;DHT22;4334;49.982;8.398;2023-05-23T00:47:42;18.30;99.90
8593;DHT22;4334;49.982;8.398;2023-05-23T00:50:11;20.80;99.90
8593;DHT22;4334;49.982;8.398;2023-05-23T00:52:39;18.60;99.90
8593;DHT22;4334;49.982;8.398;2023-05-23T00:55:08;18.50;99.90
8593;DHT22;4334;49.982;8.398;2023-05-23T00:57:35;18.50;99.90
8593;DHT22;4334;49.982;8.398;2023-05-23T01:00:06;18.40;99.90
8593;DHT22;4334;49.982;8.398;2023-05-23T01:02:38;18.50;99.90
8593;DHT22;4334;49.982;8.398;2023-05-23T01:05:08;18.50;99.90
8593;DHT22;4334;49.982;8.398;2023-05-23T01:07:35;18.50;99.90
8593;DHT22;4334;49.982;8.398;2023-05-23T01:10:03;18.50;99.90
8593;DHT22;4334;49.982;8.398;2023-05-23T01:12:37;18.50;99.90
8593;DHT22;4334;49.982;8.398;2023-05-23T01:15:08;18.50;99.90
8593;DHT22;4334;49.982;8.398;2023-05-23T01:17:44;18.50;99.90
8593;DHT22;4334;49.982;8.398;2023-05-23T01:20:19;18.50;99.90
8593;DHT22;4334;49.982;8.398;2023-05-23T01:23:09;18.50;99.90
8593;DHT22;4334;49.982;8.398;2023-05-23T01:25:56;18.40;99.90
8593;DHT22;4334;49.982;8.398;2023-05-23T01:28:30;18.30;99.90
8593;DHT22;4334;49.982;8.398;2023-05-23T01:30:59;18.30;99.90
8593;DHT22;4334;49.982;8.398;2023-05-23T01:33:27;18.20;99.90
8593;DHT22;4334;49.982;8.398;2023-05-23T01:35:55;18.20;99.90
8593;DHT22;4334;49.982;8.398;2023-05-23T01:38:23;18.20;99.90
8593;DHT22;4334;49.982;8.398;2023-05-23T01:40:50;18.20;99.90
8593;DHT22;4334;49.982;8.398;2023-05-23T01:43:17;18.20;99.90
8593;DHT22;4334;49.982;8.398;2023-05-23T01:45:45;18.10;99.90
8593;DHT22;4334;49.982;8.398;2023-05-23T01:48:13;18.20;99.90
8593;DHT22;4334;49.982;8.398;2023-05-23T01:50:41;18.10;99.90
8593;DHT22;4334;49.982;8.398;2023-05-23T01:53:11;18.10;99.90
8593;DHT22;4334;49.982;8.398;2023-05-23T01:55:39;18.20;99.90
8593;DHT22;4334;49.982;8.398;2023-05-23T02:03:03;18.10;99.90
8593;DHT22;4334;49.982;8.398;2023-05-23T02:05:30;18.10;99.90
8593;DHT22;4334;49.982;8.398;2023-05-23T02:17:45;17.80;99.90
8593;DHT22;4334;49.982;8.398;2023-05-23T02:20:13;17.60;99.90
8593;DHT22;4334;49.982;8.398;2023-05-23T02:22:43;18.30;99.90
8593;DHT22;4334;49.982;8.398;2023-05-23T02:25:09;19.60;99.90
8593;DHT22;4334;49.982;8.398;2023-05-23T02:27:36;17.40;99.90
8593;DHT22;4334;49.982;8.398;2023-05-23T02:30:04;17.40;99.90
8593;DHT22;4334;49.982;8.398;2023-05-23T02:32:31;17.30;99.90
8593;DHT22;4334;49.982;8.398;2023-05-23T02:34:57;17.20;99.90
8593;DHT22;4334;49.982;8.398;2023-05-23T02:37:25;17.10;99.90
8593;DHT22;4334;49.982;8.398;2023-05-23T02:39:52;17.10;99.90
8593;DHT22;4334;49.982;8.398;2023-05-23T02:42:19;17.10;99.90
8593;DHT22;4334;49.982;8.398;2023-05-23T02:44:45;17.00;99.90
8593;DHT22;4334;49.982;8.398;2023-05-23T02:47:12;17.00;99.90
8593;DHT22;4334;49.982;8.398;2023-05-23T02:49:39;16.80;99.90
8593;DHT22;4334;49.982;8.398;2023-05-23T02:52:05;16.80;99.90
8593;DHT22;4334;49.982;8.398;2023-05-23T02:54:33;16.70;99.90
8593;DHT22;4334;49.982;8.398;2023-05-23T02:57:00;16.80;99.90
8593;DHT22;4334;49.982;8.398;2023-05-23T02:59:27;16.80;99.90
8593;DHT22;4334;49.982;8.398;2023-05-23T03:01:54;16.80;99.90
8593;DHT22;4334;49.982;8.398;2023-05-23T03:04:20;16.80;99.90
8593;DHT22;4334;49.982;8.398;2023-05-23T03:06:47;20.80;99.90
8593;DHT22;4334;49.982;8.398;2023-05-23T03:09:14;16.80;99.90
8593;DHT22;4334;49.982;8.398;2023-05-23T03:11:43;16.70;99.90
8593;DHT22;4334;49.982;8.398;2023-05-23T03:14:10;16.60;99.90
8593;DHT22;4334;49.982;8.398;2023-05-23T03:16:37;16.60;99.90
8593;DHT22;4334;49.982;8.398;2023-05-23T03:19:03;16.50;99.90
8593;DHT22;4334;49.982;8.398;2023-05-23T03:21:31;16.50;99.90
8593;DHT22;4334;49.982;8.398;2023-05-23T03:23:59;16.50;99.90
8593;DHT22;4334;49.982;8.398;2023-05-23T03:26:26;16.50;99.90
8593;DHT22;4334;49.982;8.398;2023-05-23T03:28:54;16.40;99.90
8593;DHT22;4334;49.982;8.398;2023-05-23T03:31:20;16.40;99.90
8593;DHT22;4334;49.982;8.398;2023-05-23T03:33:47;16.40;99.90
8593;DHT22;4334;49.982;8.398;2023-05-23T03:36:14;16.30;99.90
8593;DHT22;4334;49.982;8.398;2023-05-23T03:41:08;16.20;99.90
8593;DHT22;4334;49.982;8.398;2023-05-23T03:43:34;16.10;99.90
8593;DHT22;4334;49.982;8.398;2023-05-23T03:46:02;16.20;99.90
8593;DHT22;4334;49.982;8.398;2023-05-23T03:48:29;16.10;99.90
8593;DHT22;4334;49.982;8.398;2023-05-23T03:50:56;16.10;99.90
8593;DHT22;4334;49.982;8.398;2023-05-23T04:03:14;16.20;99.90
8593;DHT22;4334;49.982;8.398;2023-05-23T04:20:29;16.70;99.90
8593;DHT22;4334;49.982;8.398;2023-05-23T04:22:56;16.70;99.90
8593;DHT22;4334;49.982;8.398;2023-05-23T04:27:50;16.70;99.90
8593;DHT22;4334;49.982;8.398;2023-05-23T04:30:19;17.00;99.90
8593;DHT22;4334;49.982;8.398;2023-05-23T04:32:46;16.80;99.90
8593;DHT22;4334;49.982;8.398;2023-05-23T04:35:12;16.80;99.90
8593;DHT22;4334;49.982;8.398;2023-05-23T04:37:40;19.30;99.90
8593;DHT22;4334;49.982;8.398;2023-05-23T04:40:10;16.80;99.90
8593;DHT22;4334;49.982;8.398;2023-05-23T04:42:37;16.90;99.90
8593;DHT22;4334;49.982;8.398;2023-05-23T04:45:07;16.90;99.90
8593;DHT22;4334;49.982;8.398;2023-05-23T04:47:34;17.00;99.90
8593;DHT22;4334;49.982;8.398;2023-05-23T04:50:02;17.00;99.90
8593;DHT22;4334;49.982;8.398;2023-05-23T04:54:59;16.90;99.90
8593;DHT22;4334;49.982;8.398;2023-05-23T04:57:27;16.90;99.90
8593;DHT22;4334;49.982;8.398;2023-05-23T04:59:53;16.80;99.90
8593;DHT22;4334;49.982;8.398;2023-05-23T05:12:11;16.80;99.90
8593;DHT22;4334;49.982;8.398;2023-05-23T05:14:37;16.80;99.90
8593;DHT22;4334;49.982;8.398;2023-05-23T05:17:04;16.80;99.90
8593;DHT22;4334;49.982;8.398;2023-05-23T05:19:31;16.80;99.90
8593;DHT22;4334;49.982;8.398;2023-05-23T05:21:58;16.90;99.90
8593;DHT22;4334;49.982;8.398;2023-05-23T05:24:25;16.90;99.90
8593;DHT22;4334;49.982;8.398;2023-05-23T05:26:53;17.00;99.90
8593;DHT22;4334;49.982;8.398;2023-05-23T05:29:21;17.00;99.90
8593;DHT22;4334;49.982;8.398;2023-05-23T05:31:48;17.10;99.90
8593;DHT22;4334;49.982;8.398;2023-05-23T05:34:15;17.10;99.90
8593;DHT22;4334;49.982;8.398;2023-05-23T05:36:42;17.10;99.90
8593;DHT22;4334;49.982;8.398;2023-05-23T05:41:39;17.10;99.90
8593;DHT22;4334;49.982;8.398;2023-05-23T05:44:06;17.10;99.90
8593;DHT22;4334;49.982;8.398;2023-05-23T05:46:35;17.10;99.90
8593;DHT22;4334;49.982;8.398;2023-05-23T05:49:01;17.20;99.90
8593;DHT22;4334;49.982;8.398;2023-05-23T05:51:28;17.20;99.90
8593;DHT22;4334;49.982;8.398;2023-05-23T05:53:56;17.10;99.90
8593;DHT22;4334;49.982;8.398;2023-05-23T06:03:46;17.00;99.90
8593;DHT22;4334;49.982;8.398;2023-05-23T06:06:12;17.00;99.90
8593;DHT22;4334;49.982;8.398;2023-05-23T06:08:40;17.20;99.90
8593;DHT22;4334;49.982;8.398;2023-05-23T06:11:07;17.30;99.90
8593;DHT22;4334;49.982;8.398;2023-05-23T06:16:01;17.50;99.90
8593;DHT22;4334;49.982;8.398;2023-05-23T06:18:28;17.30;99.90
8593;DHT22;4334;49.982;8.398;2023-05-23T06:20:56;17.20;99.90
8593;DHT22;4334;49.982;8.398;2023-05-23T06:23:22;17.10;99.90
8593;DHT22;4334;49.982;8.398;2023-05-23T06:25:49;17.30;99.90
8593;DHT22;4334;49.982;8.398;2023-05-23T06:28:16;17.30;99.90
8593;DHT22;4334;49.982;8.398;2023-05-23T06:33:10;17.20;99.90
8593;DHT22;4334;49.982;8.398;2023-05-23T06:35:37;17.20;99.90
8593;DHT22;4334;49.982;8.398;2023-05-23T06:38:05;17.30;99.90
8593;DHT22;4334;49.982;8.398;2023-05-23T06:40:32;17.30;99.90
8593;DHT22;4334;49.982;8.398;2023-05-23T06:42:59;17.30;99.90
8593;DHT22;4334;49.982;8.398;2023-05-23T06:45:25;17.30;99.90
8593;DHT22;4334;49.982;8.398;2023-05-23T06:47:52;17.30;99.90
8593;DHT22;4334;49.982;8.398;2023-05-23T06:50:19;19.50;99.90
8593;DHT22;4334;49.982;8.398;2023-05-23T06:52:46;17.30;99.90
8593;DHT22;4334;49.982;8.398;2023-05-23T06:55:14;19.60;99.90
8593;DHT22;4334;49.982;8.398;2023-05-23T06:57:43;17.30;99.90
8593;DHT22;4334;49.982;8.398;2023-05-23T07:00:11;17.40;99.90
8593;DHT22;4334;49.982;8.398;2023-05-23T07:02:39;17.40;99.90
8593;DHT22;4334;49.982;8.398;2023-05-23T07:05:06;17.50;99.90
8593;DHT22;4334;49.982;8.398;2023-05-23T07:07:33;17.50;99.90
8593;DHT22;4334;49.982;8.398;2023-05-23T07:10:00;17.50;99.90
8593;DHT22;4334;49.982;8.398;2023-05-23T07:12:28;17.50;99.90
8593;DHT22;4334;49.982;8.398;2023-05-23T07:14:55;17.50;99.90
8593;DHT22;4334;49.982;8.398;2023-05-23T07:17:21;17.50;99.90
8593;DHT22;4334;49.982;8.398;2023-05-23T07:19:48;17.50;99.90
8593;DHT22;4334;49.982;8.398;2023-05-23T07:22:15;22.50;99.90
8593;DHT22;4334;49.982;8.398;2023-05-23T07:24:42;17.70;99.90
8593;DHT22;4334;49.982;8.398;2023-05-23T07:27:08;17.80;99.90
8593;DHT22;4334;49.982;8.398;2023-05-23T07:29:36;17.80;99.90
8593;DHT22;4334;49.982;8.398;2023-05-23T07:32:03;18.40;99.90
8593;DHT22;4334;49.982;8.398;2023-05-23T07:34:30;19.90;99.90
8593;DHT22;4334;49.982;8.398;2023-05-23T07:36:57;25.30;99.90
8593;DHT22;4334;49.982;8.398;2023-05-23T07:39:23;22.40;99.90
8593;DHT22;4334;49.982;8.398;2023-05-23T07:41:52;23.10;99.90
8593;DHT22;4334;49.982;8.398;2023-05-23T07:44:19;22.80;99.90
8593;DHT22;4334;49.982;8.398;2023-05-23T07:46:47;21.80;99.90
8593;DHT22;4334;49.982;8.398;2023-05-23T07:49:14;21.10;99.90
8593;DHT22;4334;49.982;8.398;2023-05-23T07:59:03;18.70;99.90
8593;DHT22;4334;49.982;8.398;2023-05-23T08:03:58;18.50;99.90
8593;DHT22;4334;49.982;8.398;2023-05-23T08:13:46;18.50;99.90
8593;DHT22;4334;49.982;8.398;2023-05-23T08:16:13;19.10;99.90
8593;DHT22;4334;49.982;8.398;2023-05-23T08:21:08;22.00;99.90
8593;DHT22;4334;49.982;8.398;2023-05-23T08:23:35;22.10;99.90
8593;DHT22;4334;49.982;8.398;2023-05-23T08:26:01;21.50;99.90
8593;DHT22;4334;49.982;8.398;2023-05-23T08:28:28;20.90;99.90
8593;DHT22;4334;49.982;8.398;2023-05-23T08:30:55;20.10;99.90
8593;DHT22;4334;49.982;8.398;2023-05-23T08:33:22;19.40;99.90
8593;DHT22;4334;49.982;8.398;2023-05-23T08:38:17;18.80;99.90
8593;DHT22;4334;49.982;8.398;2023-05-23T08:40:49;18.60;99.90
8593;DHT22;4334;49.982;8.398;2023-05-23T08:48:12;19.00;99.90
8593;DHT22;4334;49.982;8.398;2023-05-23T08:50:43;19.50;99.90
8593;DHT22;4334;49.982;8.398;2023-05-23T08:53:14;20.10;99.90
8593;DHT22;4334;49.982;8.398;2023-05-23T08:58:14;19.90;99.90
8593;DHT22;4334;49.982;8.398;2023-05-23T09:00:41;20.00;99.90
8593;DHT22;4334;49.982;8.398;2023-05-23T09:03:09;19.90;99.90
8593;DHT22;4334;49.982;8.398;2023-05-23T09:05:36;19.90;99.90
8593;DHT22;4334;49.982;8.398;2023-05-23T09:08:03;20.00;99.90
8593;DHT22;4334;49.982;8.398;2023-05-23T09:10:30;20.00;99.90
8593;DHT22;4334;49.982;8.398;2023-05-23T09:12:58;20.00;99.90
8593;DHT22;4334;49.982;8.398;2023-05-23T09:17:58;19.40;99.90
8593;DHT22;4334;49.982;8.398;2023-05-23T09:20:26;19.10;99.90
8593;DHT22;4334;49.982;8.398;2023-05-23T09:22:54;18.80;99.90
8593;DHT22;4334;49.982;8.398;2023-05-23T09:25:21;18.70;99.90
8593;DHT22;4334;49.982;8.398;2023-05-23T09:27:47;18.70;99.90
8593;DHT22;4334;49.982;8.398;2023-05-23T09:30:16;18.80;99.90
8593;DHT22;4334;49.982;8.398;2023-05-23T09:32:57;18.70;99.90
8593;DHT22;4334;49.982;8.398;2023-05-23T09:37:56;18.60;99.90
8593;DHT22;4334;49.982;8.398;2023-05-23T09:45:30;19.10;99.90
8593;DHT22;4334;49.982;8.398;2023-05-23T09:50:30;20.50;99.90
8593;DHT22;4334;49.982;8.398;2023-05-23T09:52:58;21.80;99.90
8593;DHT22;4334;49.982;8.398;2023-05-23T09:55:25;22.50;99.90
8593;DHT22;4334;49.982;8.398;2023-05-23T09:57:53;23.10;99.90
8593;DHT22;4334;49.982;8.398;2023-05-23T10:00:22;23.10;99.90
8593;DHT22;4334;49.982;8.398;2023-05-23T10:03:03;23.60;99.90
8593;DHT22;4334;49.982;8.398;2023-05-23T10:05:37;22.20;99.90
8593;DHT22;4334;49.982;8.398;2023-05-23T10:08:08;21.20;99.90
8593;DHT22;4334;49.982;8.398;2023-05-23T10:16:19;20.20;99.90
8593;DHT22;4334;49.982;8.398;2023-05-23T10:18:56;21.90;99.90
8593;DHT22;4334;49.982;8.398;2023-05-23T10:21:26;20.60;99.90
8593;DHT22;4334;49.982;8.398;2023-05-23T10:23:58;20.90;99.90
8593;DHT22;4334;49.982;8.398;2023-05-23T10:26:26;21.00;99.90
8593;DHT22;4334;49.982;8.398;2023-05-23T10:31:20;20.40;99.90
8593;DHT22;4334;49.982;8.398;2023-05-23T10:33:52;20.30;99.90
8593;DHT22;4334;49.982;8.398;2023-05-23T10:36:27;20.50;99.90
8593;DHT22;4334;49.982;8.398;2023-05-23T10:39:03;20.50;99.90
8593;DHT22;4334;49.982;8.398;2023-05-23T10:41:37;20.10;99.90
8593;DHT22;4334;49.982;8.398;2023-05-23T10:44:11;19.70;99.90
8593;DHT22;4334;49.982;8.398;2023-05-23T10:46:52;19.30;99.90
8593;DHT22;4334;49.982;8.398;2023-05-23T10:54:34;19.10;99.90
8593;DHT22;4334;49.982;8.398;2023-05-23T10:59:31;18.90;99.90
8593;DHT22;4334;49.982;8.398;2023-05-23T11:14:31;19.20;99.90
8593;DHT22;4334;49.982;8.398;2023-05-23T11:21:57;19.20;99.90
8593;DHT22;4334;49.982;8.398;2023-05-23T11:24:49;19.40;99.90
8593;DHT22;4334;49.982;8.398;2023-05-23T11:29:56;20.10;99.90
8593;DHT22;4334;49.982;8.398;2023-05-23T11:32:23;20.50;99.90
8593;DHT22;4334;49.982;8.398;2023-05-23T11:34:51;20.50;99.90
8593;DHT22;4334;49.982;8.398;2023-05-23T11:37:18;20.80;99.90
8593;DHT22;4334;49.982;8.398;2023-05-23T11:39:45;20.80;99.90
8593;DHT22;4334;49.982;8.398;2023-05-23T11:42:12;21.20;99.90
8593;DHT22;4334;49.982;8.398;2023-05-23T11:44:39;21.40;99.90
8593;DHT22;4334;49.982;8.398;2023-05-23T11:47:06;21.00;99.90
8593;DHT22;4334;49.982;8.398;2023-05-23T11:49:35;20.80;99.90
8593;DHT22;4334;49.982;8.398;2023-05-23T11:52:04;20.30;99.90
8593;DHT22;4334;49.982;8.398;2023-05-23T11:56:59;19.90;99.90
8593;DHT22;4334;49.982;8.398;2023-05-23T12:21:43;21.20;99.90
8593;DHT22;4334;49.982;8.398;2023-05-23T12:24:19;21.00;99.90
8593;DHT22;4334;49.982;8.398;2023-05-23T12:29:14;21.60;99.90
8593;DHT22;4334;49.982;8.398;2023-05-23T12:34:10;21.20;99.90
8593;DHT22;4334;49.982;8.398;2023-05-23T12:39:05;21.70;99.90
8593;DHT22;4334;49.982;8.398;2023-05-23T12:41:33;21.50;99.90
8593;DHT22;4334;49.982;8.398;2023-05-23T12:46:29;21.50;99.90
8593;DHT22;4334;49.982;8.398;2023-05-23T12:53:50;22.50;99.90
8593;DHT22;4334;49.982;8.398;2023-05-23T12:56:16;22.30;99.90
8593;DHT22;4334;49.982;8.398;2023-05-23T12:58:44;22.20;99.90
8593;DHT22;4334;49.982;8.398;2023-05-23T13:03:38;22.60;99.90
8593;DHT22;4334;49.982;8.398;2023-05-23T13:06:06;23.20;99.90
8593;DHT22;4334;49.982;8.398;2023-05-23T13:08:33;23.80;99.90
8593;DHT22;4334;49.982;8.398;2023-05-23T13:15:56;22.50;99.90
8593;DHT22;4334;49.982;8.398;2023-05-23T13:20:50;21.40;99.90
8593;DHT22;4334;49.982;8.398;2023-05-23T13:28:11;20.40;99.90
8593;DHT22;4334;49.982;8.398;2023-05-23T13:35:33;20.10;99.90
8593;DHT22;4334;49.982;8.398;2023-05-23T13:38:00;20.40;99.90
8593;DHT22;4334;49.982;8.398;2023-05-23T13:42:54;20.30;99.90
8593;DHT22;4334;49.982;8.398;2023-05-23T13:45:21;20.30;99.90
8593;DHT22;4334;49.982;8.398;2023-05-23T13:47:49;20.40;99.90
8593;DHT22;4334;49.982;8.398;2023-05-23T13:55:12;21.40;99.90
8593;DHT22;4334;49.982;8.398;2023-05-23T13:57:38;21.70;99.90
8593;DHT22;4334;49.982;8.398;2023-05-23T14:00:07;21.20;99.90
8593;DHT22;4334;49.982;8.398;2023-05-23T14:02:34;21.00;99.90
8593;DHT22;4334;49.982;8.398;2023-05-23T14:07:30;20.20;99.90
8593;DHT22;4334;49.982;8.398;2023-05-23T14:09:57;20.10;99.90
8593;DHT22;4334;49.982;8.398;2023-05-23T14:14:51;20.00;99.90
8593;DHT22;4334;49.982;8.398;2023-05-23T14:17:18;20.20;99.90
8593;DHT22;4334;49.982;8.398;2023-05-23T14:22:12;20.20;99.90
8593;DHT22;4334;49.982;8.398;2023-05-23T14:24:40;20.20;99.90
8593;DHT22;4334;49.982;8.398;2023-05-23T14:27:07;19.90;99.90
8593;DHT22;4334;49.982;8.398;2023-05-23T14:32:01;19.70;99.90
8593;DHT22;4334;49.982;8.398;2023-05-23T14:34:28;19.50;99.90
8593;DHT22;4334;49.982;8.398;2023-05-23T14:54:08;18.60;99.90
8593;DHT22;4334;49.982;8.398;2023-05-23T15:08:57;19.10;99.90
8593;DHT22;4334;49.982;8.398;2023-05-23T15:11:24;19.40;99.90
8593;DHT22;4334;49.982;8.398;2023-05-23T15:13:51;19.90;99.90
8593;DHT22;4334;49.982;8.398;2023-05-23T15:16:19;20.60;99.90
8593;DHT22;4334;49.982;8.398;2023-05-23T15:21:13;20.40;99.90
8593;DHT22;4334;49.982;8.398;2023-05-23T15:23:40;20.10;99.90
8593;DHT22;4334;49.982;8.398;2023-05-23T15:26:07;20.10;99.90
8593;DHT22;4334;49.982;8.398;2023-05-23T15:28:34;20.10;99.90
8593;DHT22;4334;49.982;8.398;2023-05-23T15:31:01;20.10;99.90
8593;DHT22;4334;49.982;8.398;2023-05-23T15:33:29;19.90;99.90
8593;DHT22;4334;49.982;8.398;2023-05-23T15:35:56;19.70;99.90
8593;DHT22;4334;49.982;8.398;2023-05-23T15:38:23;19.50;99.90
8593;DHT22;4334;49.982;8.398;2023-05-23T15:40:50;19.50;99.90
8593;DHT22;4334;49.982;8.398;2023-05-23T15:43:19;19.60;99.90
8593;DHT22;4334;49.982;8.398;2023-05-23T15:48:13;19.30;99.90
8593;DHT22;4334;49.982;8.398;2023-05-23T15:50:41;19.40;99.90
8593;DHT22;4334;49.982;8.398;2023-05-23T15:53:08;19.30;99.90
8593;DHT22;4334;49.982;8.398;2023-05-23T15:55:35;19.50;99.90
8593;DHT22;4334;49.982;8.398;2023-05-23T16:00:29;19.40;99.90
8593;DHT22;4334;49.982;8.398;2023-05-23T16:02:56;19.20;99.90
8593;DHT22;4334;49.982;8.398;2023-05-23T16:05:23;19.20;99.90
8593;DHT22;4334;49.982;8.398;2023-05-23T16:07:51;19.40;99.90
8593;DHT22;4334;49.982;8.398;2023-05-23T16:15:12;19.10;99.90
8593;DHT22;4334;49.982;8.398;2023-05-23T16:20:07;19.30;99.90
8593;DHT22;4334;49.982;8.398;2023-05-23T16:25:03;19.20;99.90
8593;DHT22;4334;49.982;8.398;2023-05-23T16:27:32;19.00;99.90
8593;DHT22;4334;49.982;8.398;2023-05-23T16:37:21;19.70;99.90
8593;DHT22;4334;49.982;8.398;2023-05-23T16:39:48;20.30;99.90
8593;DHT22;4334;49.982;8.398;2023-05-23T16:42:16;20.40;99.90
8593;DHT22;4334;49.982;8.398;2023-05-23T16:47:11;20.40;99.90
8593;DHT22;4334;49.982;8.398;2023-05-23T16:52:05;20.90;99.90
8593;DHT22;4334;49.982;8.398;2023-05-23T16:56:59;21.40;99.90
8593;DHT22;4334;49.982;8.398;2023-05-23T16:59:27;21.70;99.90
8593;DHT22;4334;49.982;8.398;2023-05-23T17:06:49;19.90;99.90
8593;DHT22;4334;49.982;8.398;2023-05-23T17:11:43;19.70;99.90
8593;DHT22;4334;49.982;8.398;2023-05-23T17:14:10;20.10;99.90
8593;DHT22;4334;49.982;8.398;2023-05-23T17:16:38;20.40;99.90
8593;DHT22;4334;49.982;8.398;2023-05-23T17:19:05;20.40;99.90
8593;DHT22;4334;49.982;8.398;2023-05-23T17:31:20;18.20;99.90
8593;DHT22;4334;49.982;8.398;2023-05-23T17:33:48;18.50;99.90
8593;DHT22;4334;49.982;8.398;2023-05-23T17:43:38;18.10;99.90
8593;DHT22;4334;49.982;8.398;2023-05-23T18:08:13;16.70;99.90
8593;DHT22;4334;49.982;8.398;2023-05-23T18:15:38;16.50;99.90
8593;DHT22;4334;49.982;8.398;2023-05-23T18:18:05;16.40;99.90
8593;DHT22;4334;49.982;8.398;2023-05-23T18:23:00;16.30;99.90
8593;DHT22;4334;49.982;8.398;2023-05-23T18:27:57;16.20;99.90
8593;DHT22;4334;49.982;8.398;2023-05-23T18:32:51;15.90;99.90
8593;DHT22;4334;49.982;8.398;2023-05-23T18:35:18;15.90;99.90
8593;DHT22;4334;49.982;8.398;2023-05-23T18:37:46;15.60;99.90
8593;DHT22;4334;49.982;8.398;2023-05-23T18:40:12;15.50;99.90
8593;DHT22;4334;49.982;8.398;2023-05-23T18:42:41;15.50;99.90
8593;DHT22;4334;49.982;8.398;2023-05-23T18:45:09;15.40;99.90
8593;DHT22;4334;49.982;8.398;2023-05-23T18:50:03;15.30;99.90
8593;DHT22;4334;49.982;8.398;2023-05-23T18:52:30;15.20;99.90
8593;DHT22;4334;49.982;8.398;2023-05-23T18:57:29;15.00;99.90
8593;DHT22;4334;49.982;8.398;2023-05-23T18:59:59;14.90;99.90
8593;DHT22;4334;49.982;8.398;2023-05-23T19:17:09;14.40;99.90
8593;DHT22;4334;49.982;8.398;2023-05-23T19:34:21;14.00;99.90
8593;DHT22;4334;49.982;8.398;2023-05-23T19:49:05;13.70;99.90
8593;DHT22;4334;49.982;8.398;2023-05-23T19:51:34;13.70;99.90
8593;DHT22;4334;49.982;8.398;2023-05-23T20:08:48;13.60;99.90
8593;DHT22;4334;49.982;8.398;2023-05-23T20:25:59;13.70;99.90
8593;DHT22;4334;49.982;8.398;2023-05-23T20:43:14;13.80;99.90
8593;DHT22;4334;49.982;8.398;2023-05-23T21:00:27;13.80;99.90
8593;DHT22;4334;49.982;8.398;2023-05-23T21:17:43;13.80;99.90
8593;DHT22;4334;49.982;8.398;2023-05-23T21:20:10;13.80;99.90
8593;DHT22;4334;49.982;8.398;2023-05-23T21:25:05;13.70;99.90
8593;DHT22;4334;49.982;8.398;2023-05-23T21:34:55;13.40;99.90
8593;DHT22;4334;49.982;8.398;2023-05-23T21:37:21;13.40;99.90
8593;DHT22;4334;49.982;8.398;2023-05-23T21:47:09;13.00;99.90
8593;DHT22;4334;49.982;8.398;2023-05-23T21:52:06;12.80;99.90
8593;DHT22;4334;49.982;8.398;2023-05-23T22:09:17;12.50;99.90
8593;DHT22;4334;49.982;8.398;2023-05-23T22:26:29;12.10;99.90
8593;DHT22;4334;49.982;8.398;2023-05-23T22:43:41;11.80;99.90
8593;DHT22;4334;49.982;8.398;2023-05-23T22:51:03;11.60;99.90
8593;DHT22;4334;49.982;8.398;2023-05-23T23:00:56;11.60;99.90
8593;DHT22;4334;49.982;8.398;2023-05-23T23:18:08;11.10;99.90
8593;DHT22;4334;49.982;8.398;2023-05-23T23:35:25;10.90;99.90
8593;DHT22;4334;49.982;8.398;2023-05-23T23:50:08;10.90;99.90
8593;DHT22;4334;49.982;8.398;2023-05-23T23:52:36;10.90;99.90
8593;DHT22;4334;49.982;8.398;2023-05-23T23:55:04;10.90;99.90
